Upstream stations:
Downstream station:
SHEF ID: OSOK1 Oswego hwy 160
STATION TYPE:
PRECIP STAGE RIV-FLOW VOLTAGE BAT-LOAD
in ft cfs volt volt
Ccp-Rev Ccp-Rev Ccp-Rev Ccp-Rev Ccp-Rev
(US/Central)
04/07 00:00 0.00 12.17 2829 12.57 12.49
04/07 01:00 0.00 12.19 2849 12.57 12.41
04/07 02:00 0.00 12.26 2921 12.57 12.41
04/07 03:00 0.00 12.31 2973 12.41 12.41
04/07 04:00 0.00 12.44 3110 12.57 12.41
04/07 05:00 0.00 12.55 3227 12.57 12.41
04/07 06:00 0.00 12.75 3445 12.57 12.41
04/07 07:00 0.00 12.91 3623 12.57 12.41
04/07 08:00 0.00 13.13 3873 12.65 12.41
04/07 09:00 0.00 13.29 4058 13.68 13.05
04/07 10:00 0.00 13.57 4394 13.92 12.97
04/07 11:00 0.00 13.77 4641 13.76 13.37
04/07 12:00 0.00 13.96 4880 14.08 12.65
04/07 13:00 0.00 14.20 5188 14.08 12.65
04/07 14:00 0.00 14.35 5369 13.44 12.73
04/07 15:00 0.00 14.54 5593 13.60 13.44
04/07 16:00 0.00 14.68 5760 13.68 13.37
04/07 17:00 0.00 14.84 5952 13.44 12.65
04/07 18:00 0.00 14.95 6085 13.84 12.65
04/07 19:00 0.00 15.06 6219 12.65 12.57
04/07 20:00 0.00 15.17 6354 12.65 12.57
04/07 21:00 0.00 15.27 6478 12.65 12.49
04/07 22:00 0.00 15.30 6515 12.65 12.49
04/07 23:00 ---- ---- ---- ---- ----